Latest Weather Observations for Albury

IDN60801

Issued at 9:32 pm EST Tuesday 7 July 2015 (issued every 30 minutes, with the page automatically refreshed every 10 minutes)

About weather observations | Map of weather stations | Latest weather observations for NSW | Other Formats
Station Details ID: 072160 Name: ALBURY AIRPORT AWS Lat: -36.07 Lon: 146.95 Height: 163.5 m
Data from the previous 72 hours. | See also: Recent months at Albury
Date/Time
EST
Temp
°C
App
Temp
°C
Dew
Point
Rel
Hum
%
Delta-T
°C
Wind Press
QNH
hPa
Press
MSL
hPa
Rain
since 9 am
mm
Dir
 
Spd
km/h
Gust
km/h
Spd
kts
Gust
kts
07/09:30pm 4.0 2.5 2.8 92 0.5 CALM 0 0 0 0 1025.0 1025.4 0.0
07/09:00pm 4.6 3.1 3.1 90 0.6 CALM 0 0 0 0 1024.7 1025.1 0.0
07/08:30pm 4.6 3.1 2.9 89 0.7 CALM 0 0 0 0 1024.5 1024.9 0.0
07/08:00pm 5.6 4.3 3.9 89 0.7 CALM 0 0 0 0 1024.3 1024.6 0.0
07/07:30pm 6.3 3.9 4.1 86 0.9 NE 6 7 3 4 1024.0 1024.3 0.0
07/07:00pm 7.2 5.9 4.2 81 1.3 CALM 0 0 0 0 1023.8 1024.1 0.0
07/06:30pm 8.3 7.1 4.7 78 1.6 CALM 0 0 0 0 1023.5 1023.8 0.0
07/06:00pm 9.7 7.3 5.1 73 2.1 NNW 7 9 4 5 1023.2 1023.5 0.0
07/05:30pm 10.2 9.0 4.4 67 2.6 CALM 0 0 0 0 1022.8 1023.1 0.0
07/05:00pm 13.4 12.2 4.8 56 4.0 CALM 0 0 0 0 1022.5 1022.8 0.0
07/04:30pm 14.5 13.2 5.8 56 4.2 SSE 2 6 1 3 1022.3 1022.6 0.0
07/04:00pm 14.5 13.1 5.6 55 4.2 E 2 7 1 4 1022.0 1022.4 0.0
07/03:30pm 14.0 11.9 5.6 57 4.0 ESE 6 9 3 5 1021.8 1022.2 0.0
07/03:00pm 13.7 11.7 4.6 54 4.2 ESE 4 9 2 5 1021.6 1022.0 0.0
07/02:30pm 13.6 11.5 5.7 59 3.8 E 6 9 3 5 1021.5 1021.9 0.0
07/02:00pm 13.1 10.9 6.0 62 3.4 SSE 7 11 4 6 1021.5 1021.9 0.0
07/01:30pm 13.0 10.9 5.7 61 3.5 ESE 6 9 3 5 1021.5 1021.9 0.0
07/01:00pm 13.2 11.4 5.4 59 3.7 NNE 4 7 2 4 1021.7 1022.1 0.0
07/12:30pm 12.2 10.9 5.8 65 3.0 SE 2 6 1 3 1021.9 1022.3 0.0
07/12:00pm 11.5 10.5 5.4 66 2.8 CALM 0 6 0 3 1022.3 1022.6 0.0
07/11:30am 11.2 9.0 6.3 72 2.3 SE 7 11 4 6 1022.6 1022.9 0.0
07/11:00am 10.4 8.1 5.6 72 2.2 SSE 7 11 4 6 1022.8 1023.1 0.0
07/10:30am 9.8 7.1 5.4 74 2.0 SSE 9 13 5 7 1022.9 1023.2 0.0
07/10:00am 9.3 7.0 5.7 78 1.6 SE 7 9 4 5 1022.9 1023.2 0.0
07/09:30am 8.5 5.8 5.4 81 1.4 SE 9 13 5 7 1022.6 1022.9 0.0
07/09:00am 7.6 4.7 4.9 83 1.2 SE 9 15 5 8 1022.4 1022.7 0.0
07/08:30am 6.8 5.3 5.0 88 0.8 NNE 2 9 1 5 1022.2 1022.5 0.0
07/08:00am 5.8 4.5 4.3 90 0.6 CALM 0 0 0 0 1021.7 1022.1 0.0
07/07:30am 5.7 4.5 4.5 92 0.5 CALM 0 0 0 0 1021.3 1021.7 0.0
07/07:00am 6.0 4.8 4.5 90 0.6 CALM 0 0 0 0 1021.1 1021.5 0.0
07/06:30am 6.3 5.2 4.9 91 0.6 CALM 0 0 0 0 1020.7 1021.1 0.0
07/06:00am 6.6 4.7 5.1 90 0.7 ENE 4 6 2 3 1020.4 1020.8 0.0
07/05:30am 6.5 5.3 4.8 89 0.7 CALM 0 0 0 0 1020.2 1020.6 0.0
07/05:00am 6.5 4.0 5.0 90 0.7 NNW 7 9 4 5 1020.0 1020.4 0.0
07/04:30am 6.3 5.1 4.8 90 0.7 CALM 0 0 0 0 1019.8 1020.2 0.0
07/04:00am 6.2 3.9 4.8 91 0.6 NNW 6 9 3 5 1019.8 1020.2 0.0
07/03:30am 5.9 4.7 4.5 91 0.6 CALM 0 0 0 0 1019.7 1020.1 0.0
07/03:00am 6.2 5.0 4.8 91 0.6 CALM 0 0 0 0 1019.7 1020.1 0.0
07/02:30am 6.3 5.2 4.9 91 0.6 CALM 0 0 0 0 1019.7 1020.1 0.0
07/02:00am 6.2 4.7 4.8 91 0.6 W 2 7 1 4 1019.6 1020.0 0.0
07/01:30am 6.2 5.0 4.8 91 0.6 CALM 0 0 0 0 1019.5 1019.9 0.0
07/01:00am 5.9 3.5 4.4 90 0.6 N 6 7 3 4 1019.4 1019.8 0.0
07/12:30am 6.1 4.9 4.7 91 0.6 CALM 0 0 0 0 1019.4 1019.8 0.0
07/12:00am 6.1 3.6 4.9 92 0.5 N 7 9 4 5 1019.4 1019.8 0.0
 
Date/Time
EST
Temp
°C
App
Temp
°C
Dew
Point
Rel
Hum
%
Delta-T
°C
Wind Press
QNH
hPa
Press
MSL
hPa
Rain
since 9 am
mm
Dir
 
Spd
km/h
Gust
km/h
Spd
kts
Gust
kts
06/11:30pm 5.7 4.5 4.5 92 0.5 CALM 0 0 0 0 1019.4 1019.8 0.0
06/11:00pm 5.5 4.3 4.5 93 0.4 CALM 0 0 0 0 1019.5 1019.9 0.0
06/10:30pm 5.2 3.9 4.2 93 0.4 CALM 0 0 0 0 1019.3 1019.6 0.0
06/10:00pm 5.8 4.6 4.6 92 0.5 CALM 0 0 0 0 1019.0 1019.3 0.0
06/09:30pm 6.2 5.0 4.4 88 0.8 CALM 0 0 0 0 1019.0 1019.3 0.0
06/09:00pm 7.0 5.9 5.2 88 0.8 CALM 0 0 0 0 1019.2 1019.5 0.0
06/08:30pm 7.3 5.1 5.4 88 0.9 ENE 6 7 3 4 1019.3 1019.6 0.0
06/08:00pm 7.6 6.6 5.4 86 1.0 CALM 0 0 0 0 1019.1 1019.4 0.0
06/07:30pm 7.4 5.5 4.9 84 1.1 NW 4 7 2 4 1019.1 1019.4 0.0
06/07:00pm 7.7 6.6 5.0 83 1.2 CALM 0 0 0 0 1018.9 1019.2 0.0
06/06:30pm 7.6 6.4 4.6 81 1.3 CALM 0 0 0 0 1018.6 1018.9 0.0
06/06:00pm 8.0 5.7 4.6 79 1.5 E 6 6 3 3 1018.4 1018.7 0.0
06/05:30pm 8.6 6.3 4.8 77 1.7 E 6 7 3 4 1018.1 1018.4 0.0
06/05:00pm 8.9 6.9 4.5 74 2.0 SE 4 7 2 4 1017.9 1018.2 0.0
06/04:30pm 9.1 6.7 4.3 72 2.1 SSW 6 7 3 4 1017.8 1018.1 0.0
06/04:00pm 9.3 6.3 4.3 71 2.2 WSW 9 11 5 6 1017.8 1018.1 0.0
06/03:30pm 9.4 6.4 4.0 69 2.4 WSW 9 13 5 7 1017.7 1018.0 0.0
06/03:00pm 9.7 6.8 4.5 70 2.3 WSW 9 13 5 7 1017.5 1017.8 0.0
06/02:30pm 9.8 6.4 4.2 68 2.5 W 11 15 6 8 1017.4 1017.7 0.0
06/02:00pm 9.7 6.7 4.3 69 2.4 W 9 13 5 7 1017.4 1017.7 0.0
06/01:30pm 9.8 6.9 4.4 69 2.4 W 9 13 5 7 1017.6 1017.9 0.0
06/01:00pm 9.7 7.1 4.1 68 2.5 W 7 11 4 6 1017.8 1018.1 0.0
06/12:30pm 9.6 7.1 4.0 68 2.5 NNW 6 9 3 5 1017.9 1018.2 0.0
06/12:00pm 9.7 8.0 4.1 68 2.5 ESE 2 6 1 3 1018.2 1018.5 0.0
06/11:30am 9.8 7.7 3.8 66 2.7 ESE 4 7 2 4 1018.5 1018.8 0.0
06/11:00am 9.8 7.8 4.2 68 2.5 ENE 4 7 2 4 1018.7 1019.0 0.0
06/10:30am 9.8 7.2 4.4 69 2.4 ESE 7 9 4 5 1019.0 1019.3 0.0
06/10:00am 9.7 7.3 5.1 73 2.1 ENE 7 11 4 6 1018.9 1019.2 0.0
06/09:30am 8.8 6.4 5.4 79 1.5 ENE 7 9 4 5 1018.9 1019.2 0.0
06/09:00am 8.2 7.2 5.7 84 1.1 CALM 0 0 0 0 1018.9 1019.2 0.0
06/08:30am 7.4 6.4 5.4 87 0.9 CALM 0 0 0 0 1018.8 1019.1 0.0
06/08:00am 6.9 5.8 5.1 88 0.8 CALM 0 0 0 0 1018.8 1019.1 0.0
06/07:30am 6.9 4.6 4.9 87 0.9 ENE 6 6 3 3 1018.8 1019.1 0.0
06/07:00am 6.7 5.6 4.9 88 0.8 CALM 0 0 0 0 1018.7 1019.0 0.0
06/06:30am 6.9 5.8 5.1 88 0.8 CALM 0 0 0 0 1018.6 1018.9 0.0
06/06:00am 6.8 5.7 5.0 88 0.8 CALM 0 0 0 0 1018.4 1018.7 0.0
06/05:30am 6.9 5.8 5.1 88 0.8 CALM 0 0 0 0 1018.4 1018.7 0.0
06/05:00am 7.0 5.9 5.2 88 0.8 CALM 0 0 0 0 1018.5 1018.8 0.0
06/04:30am 7.0 5.9 5.0 87 0.9 CALM 0 0 0 0 1018.5 1018.8 0.0
06/04:00am 7.1 6.0 4.9 86 1.0 CALM 0 0 0 0 1018.6 1018.9 0.0
06/03:30am 7.2 6.1 5.0 86 1.0 CALM 0 0 0 0 1018.8 1019.1 0.0
06/03:00am 7.3 5.0 4.9 85 1.1 ENE 6 7 3 4 1019.0 1019.3 0.0
06/02:30am 7.3 5.1 5.3 87 0.9 N 6 11 3 6 1019.2 1019.5 0.0
06/02:00am 7.2 6.1 5.0 86 1.0 CALM 0 0 0 0 1019.3 1019.6 0.0
06/01:30am 7.4 6.3 5.0 85 1.1 CALM 0 0 0 0 1019.3 1019.6 0.0
06/01:00am 7.3 6.2 5.1 86 1.0 CALM 0 0 0 0 1019.6 1020.0 0.0
06/12:30am 7.4 6.3 4.9 84 1.1 CALM 0 0 0 0 1019.9 1020.3 0.0
06/12:00am 7.5 6.4 5.1 85 1.1 CALM 0 0 0 0 1020.1 1020.5 0.0
 
Date/Time
EST
Temp
°C
App
Temp
°C
Dew
Point
Rel
Hum
%
Delta-T
°C
Wind Press
QNH
hPa
Press
MSL
hPa
Rain
since 9 am
mm
Dir
 
Spd
km/h
Gust
km/h
Spd
kts
Gust
kts
05/11:30pm 7.7 6.6 5.0 83 1.2 CALM 0 0 0 0 1020.3 1020.7 0.0
05/11:00pm 7.8 6.6 4.7 81 1.4 CALM 0 0 0 0 1020.3 1020.7 0.0
05/10:30pm 7.9 6.0 4.8 81 1.4 NNE 4 6 2 3 1020.2 1020.6 0.0
05/10:00pm 7.9 5.4 4.8 81 1.4 NNW 7 9 4 5 1020.3 1020.7 0.0
05/09:30pm 8.0 6.9 4.9 81 1.4 CALM 0 0 0 0 1020.4 1020.8 0.0
05/09:00pm 7.8 6.7 4.9 82 1.3 CALM 0 0 0 0 1020.3 1020.7 0.0
05/08:30pm 8.0 6.8 4.8 80 1.4 CALM 0 0 0 0 1020.4 1020.8 0.0
05/08:00pm 8.2 5.9 5.0 80 1.4 ENE 6 7 3 4 1020.5 1020.9 0.0
05/07:30pm 8.4 7.3 5.0 79 1.5 CALM 0 9 0 5 1020.6 1021.0 0.0
05/07:00pm 8.9 7.2 3.9 71 2.2 W 2 6 1 3 1020.6 1021.0 0.0
05/06:30pm 8.7 6.3 4.1 73 2.0 WNW 6 7 3 4 1020.6 1021.0 0.0
05/06:00pm 8.9 6.0 4.5 74 2.0 WNW 9 11 5 6 1020.6 1021.0 0.0
05/05:30pm 9.0 5.6 3.8 70 2.3 W 11 13 6 7 1020.4 1020.8 0.0
05/05:00pm 10.3 7.6 3.8 64 2.9 NNW 7 9 4 5 1020.3 1020.7 0.0
05/04:30pm 10.8 8.2 4.3 64 2.9 NNE 7 11 4 6 1020.1 1020.5 0.0
05/04:00pm 11.2 8.8 4.4 63 3.1 ESE 6 13 3 7 1020.3 1020.7 0.0
05/03:30pm 11.1 8.6 3.6 60 3.3 NNW 6 9 3 5 1020.3 1020.7 0.0
05/03:00pm 11.6 9.1 3.9 59 3.5 NW 6 9 3 5 1020.4 1020.8 0.0
05/02:30pm 11.0 8.4 4.2 63 3.1 W 7 11 4 6 1020.6 1021.0 0.0
05/02:00pm 10.9 8.5 4.4 64 2.9 S 6 7 3 4 1020.7 1021.1 0.0
05/01:30pm 10.3 7.9 4.2 66 2.7 SE 6 9 3 5 1020.8 1021.2 0.0
05/01:00pm 10.5 8.8 3.8 63 3.0 ESE 2 7 1 4 1021.3 1021.7 0.0
05/12:30pm 10.3 8.2 4.0 65 2.8 SSE 4 7 2 4 1021.7 1022.1 0.0
05/12:00pm 10.7 9.0 4.2 64 2.9 SW 2 7 1 4 1022.4 1022.7 0.0
05/11:30am 9.6 7.5 4.0 68 2.5 ESE 4 7 2 4 1022.8 1023.1 0.0
05/11:00am 8.6 6.1 4.0 73 2.0 SSE 6 9 3 5 1023.2 1023.5 0.0
05/10:30am 8.8 6.9 5.0 77 1.7 E 4 9 2 5 1023.5 1023.8 0.0
05/10:00am 7.6 5.1 4.7 82 1.3 ENE 7 9 4 5 1023.7 1024.0 0.0
05/09:30am 5.8 3.7 3.8 87 0.9 E 4 7 2 4 1023.8 1024.1 0.0
05/09:00am 3.6 2.0 2.3 91 0.5 CALM 0 0 0 0 1023.6 1023.9 0.0
05/08:30am 2.9 0.1 1.9 93 0.4 ENE 6 9 3 5 1023.5 1023.8 0.0
05/08:00am 1.4 -0.5 0.5 94 0.3 CALM 0 0 0 0 1023.6 1023.9 0.0
05/07:30am 0.8 -1.2 -0.2 93 0.4 CALM 0 0 0 0 1023.5 1023.8 0.0
05/07:00am 1.1 -0.9 0.2 94 0.3 CALM 0 0 0 0 1023.4 1023.7 0.0
05/06:33am 1.2 -0.7 0.3 94 0.3 CALM 0 0 0 0 1023.2 1023.5 0.0
05/06:30am 1.4 -0.5 0.7 95 0.3 CALM 0 0 0 0 1023.2 1023.5 0.0
05/06:12am 1.1 -0.9 -0.1 92 0.4 CALM 0 0 0 0 1023.1 1023.4 0.0
05/06:00am 1.7 -0.2 0.8 94 0.3 CALM 0 0 0 0 1023.1 1023.4 0.0
05/05:30am 2.1 0.3 1.2 94 0.3 CALM 0 0 0 0 1022.9 1023.2 0.0
05/05:00am 2.4 0.6 1.5 94 0.3 CALM 0 0 0 0 1022.9 1023.2 0.0
05/04:30am 2.6 0.8 1.4 92 0.5 CALM 0 0 0 0 1022.8 1023.1 0.0
05/04:00am 3.4 1.8 2.2 92 0.5 CALM 0 0 0 0 1022.9 1023.2 0.0
05/03:30am 4.0 2.4 2.7 91 0.5 CALM 0 0 0 0 1023.0 1023.3 0.0
05/03:00am 4.0 1.7 3.0 93 0.4 NW 4 7 2 4 1022.9 1023.2 0.0
05/02:30am 4.0 2.5 2.8 92 0.5 CALM 0 0 0 0 1023.0 1023.3 0.0
05/02:00am 4.7 3.3 3.4 91 0.5 CALM 0 0 0 0 1023.1 1023.4 0.0
05/01:30am 5.7 4.3 3.7 87 0.8 CALM 0 0 0 0 1023.1 1023.4 0.0
05/01:00am 6.3 5.0 4.0 85 1.0 CALM 0 0 0 0 1023.2 1023.5 0.0
05/12:30am 6.8 5.1 4.1 83 1.2 NW 2 6 1 3 1023.5 1023.8 0.0
05/12:00am 6.9 5.2 4.0 82 1.2 NE 2 7 1 4 1023.6 1023.9 0.0
 
Date/Time
EST
Temp
°C
App
Temp
°C
Dew
Point
Rel
Hum
%
Delta-T
°C
Wind Press
QNH
hPa
Press
MSL
hPa
Rain
since 9 am
mm
Dir
 
Spd
km/h
Gust
km/h
Spd
kts
Gust
kts
04/11:30pm 7.2 5.9 4.3 82 1.3 CALM 0 0 0 0 1023.7 1024.0 0.0
04/11:00pm 7.5 5.5 4.5 81 1.3 ENE 4 6 2 3 1024.0 1024.3 0.0
04/10:30pm 7.6 5.6 4.6 81 1.3 ENE 4 7 2 4 1023.9 1024.2 0.0
04/10:00pm 7.9 6.7 4.8 81 1.4 CALM 0 0 0 0 1024.0 1024.3 0.0

Other Formats:

Comma delimited format used in spreadsheet applications
http://www.bom.gov.au/fwo/IDN60801/IDN60801.95896.axf

JavaScript Object Notation format (JSON) in row-major order
http://www.bom.gov.au/fwo/IDN60801/IDN60801.95896.json